sensor_id;sensor_type;location;lat;lon;timestamp;P1;durP1;ratioP1;P2;durP2;ratioP2
6031;SDS011;3044;43.232;27.972;2024-03-23T00:55:01;1.00;;;0.80;;
6031;SDS011;3044;43.232;27.972;2024-03-23T00:57:29;2.30;;;1.23;;
6031;SDS011;3044;43.232;27.972;2024-03-23T00:59:55;1.13;;;1.03;;
6031;SDS011;3044;43.232;27.972;2024-03-23T01:02:22;0.80;;;0.50;;
6031;SDS011;3044;43.232;27.972;2024-03-23T01:04:48;1.20;;;1.00;;
6031;SDS011;3044;43.232;27.972;2024-03-23T01:07:15;0.80;;;0.50;;
6031;SDS011;3044;43.232;27.972;2024-03-23T01:09:42;0.90;;;0.80;;
6031;SDS011;3044;43.232;27.972;2024-03-23T01:12:10;0.80;;;0.60;;
6031;SDS011;3044;43.232;27.972;2024-03-23T01:14:36;0.80;;;0.50;;
6031;SDS011;3044;43.232;27.972;2024-03-23T01:17:03;1.30;;;0.80;;
6031;SDS011;3044;43.232;27.972;2024-03-23T01:19:29;0.90;;;0.60;;
6031;SDS011;3044;43.232;27.972;2024-03-23T01:21:56;1.50;;;1.40;;
6031;SDS011;3044;43.232;27.972;2024-03-23T01:24:22;3.00;;;0.87;;
6031;SDS011;3044;43.232;27.972;2024-03-23T01:26:51;0.83;;;0.63;;
6031;SDS011;3044;43.232;27.972;2024-03-23T01:29:17;1.40;;;0.77;;
6031;SDS011;3044;43.232;27.972;2024-03-23T01:31:44;1.40;;;1.20;;
6031;SDS011;3044;43.232;27.972;2024-03-23T01:34:11;0.80;;;0.40;;
6031;SDS011;3044;43.232;27.972;2024-03-23T01:36:38;18.17;;;1.67;;
6031;SDS011;3044;43.232;27.972;2024-03-23T01:39:04;0.80;;;0.60;;
6031;SDS011;3044;43.232;27.972;2024-03-23T01:41:34;0.80;;;0.50;;
6031;SDS011;3044;43.232;27.972;2024-03-23T01:44:04;0.97;;;0.50;;
6031;SDS011;3044;43.232;27.972;2024-03-23T01:46:32;1.20;;;1.10;;
6031;SDS011;3044;43.232;27.972;2024-03-23T01:48:58;0.80;;;0.60;;
6031;SDS011;3044;43.232;27.972;2024-03-23T01:51:26;0.80;;;0.60;;
6031;SDS011;3044;43.232;27.972;2024-03-23T01:53:54;0.80;;;0.43;;
6031;SDS011;3044;43.232;27.972;2024-03-23T01:56:26;1.07;;;0.97;;
6031;SDS011;3044;43.232;27.972;2024-03-23T01:58:52;1.10;;;0.57;;
6031;SDS011;3044;43.232;27.972;2024-03-23T02:01:20;8.87;;;1.60;;
6031;SDS011;3044;43.232;27.972;2024-03-23T02:03:47;0.80;;;0.60;;
6031;SDS011;3044;43.232;27.972;2024-03-23T02:06:14;1.03;;;0.90;;
6031;SDS011;3044;43.232;27.972;2024-03-23T02:08:40;0.90;;;0.80;;
6031;SDS011;3044;43.232;27.972;2024-03-23T02:11:07;0.80;;;0.50;;
6031;SDS011;3044;43.232;27.972;2024-03-23T02:13:33;1.50;;;1.03;;
6031;SDS011;3044;43.232;27.972;2024-03-23T02:16:00;0.90;;;0.70;;
6031;SDS011;3044;43.232;27.972;2024-03-23T02:18:28;1.37;;;0.97;;
6031;SDS011;3044;43.232;27.972;2024-03-23T02:20:55;1.00;;;0.60;;
6031;SDS011;3044;43.232;27.972;2024-03-23T02:23:23;1.30;;;1.20;;
6031;SDS011;3044;43.232;27.972;2024-03-23T02:25:50;0.80;;;0.63;;
6031;SDS011;3044;43.232;27.972;2024-03-23T02:28:18;0.90;;;0.80;;
6031;SDS011;3044;43.232;27.972;2024-03-23T02:30:45;1.13;;;1.03;;
6031;SDS011;3044;43.232;27.972;2024-03-23T02:33:11;0.97;;;0.87;;
6031;SDS011;3044;43.232;27.972;2024-03-23T02:35:38;0.80;;;0.53;;
6031;SDS011;3044;43.232;27.972;2024-03-23T02:38:04;1.00;;;0.90;;
6031;SDS011;3044;43.232;27.972;2024-03-23T02:40:33;3.73;;;1.90;;
6031;SDS011;3044;43.232;27.972;2024-03-23T02:42:59;0.80;;;0.50;;
6031;SDS011;3044;43.232;27.972;2024-03-23T02:45:27;0.90;;;0.80;;
6031;SDS011;3044;43.232;27.972;2024-03-23T02:47:53;1.00;;;0.87;;
6031;SDS011;3044;43.232;27.972;2024-03-23T02:50:20;2.17;;;1.97;;
6031;SDS011;3044;43.232;27.972;2024-03-23T02:52:47;0.90;;;0.70;;
6031;SDS011;3044;43.232;27.972;2024-03-23T02:55:14;0.80;;;0.40;;
6031;SDS011;3044;43.232;27.972;2024-03-23T02:57:42;1.10;;;1.00;;
6031;SDS011;3044;43.232;27.972;2024-03-23T03:00:09;1.27;;;1.03;;
6031;SDS011;3044;43.232;27.972;2024-03-23T03:02:36;0.80;;;0.60;;
6031;SDS011;3044;43.232;27.972;2024-03-23T03:05:04;1.93;;;1.60;;
6031;SDS011;3044;43.232;27.972;2024-03-23T03:07:30;0.80;;;0.60;;
6031;SDS011;3044;43.232;27.972;2024-03-23T03:09:58;0.80;;;0.50;;
6031;SDS011;3044;43.232;27.972;2024-03-23T03:12:24;0.80;;;0.60;;
6031;SDS011;3044;43.232;27.972;2024-03-23T03:14:52;0.80;;;0.60;;
6031;SDS011;3044;43.232;27.972;2024-03-23T03:17:18;0.80;;;0.40;;
6031;SDS011;3044;43.232;27.972;2024-03-23T03:19:45;0.80;;;0.40;;
6031;SDS011;3044;43.232;27.972;2024-03-23T03:22:12;0.80;;;0.40;;
6031;SDS011;3044;43.232;27.972;2024-03-23T03:24:39;1.17;;;1.07;;
6031;SDS011;3044;43.232;27.972;2024-03-23T03:27:05;2.17;;;0.80;;
6031;SDS011;3044;43.232;27.972;2024-03-23T03:29:33;0.87;;;0.70;;
6031;SDS011;3044;43.232;27.972;2024-03-23T03:32:03;0.80;;;0.60;;
6031;SDS011;3044;43.232;27.972;2024-03-23T03:34:30;0.80;;;0.40;;
6031;SDS011;3044;43.232;27.972;2024-03-23T03:36:56;1.27;;;0.70;;
6031;SDS011;3044;43.232;27.972;2024-03-23T03:39:23;1.87;;;1.53;;
6031;SDS011;3044;43.232;27.972;2024-03-23T03:41:50;1.37;;;1.27;;
6031;SDS011;3044;43.232;27.972;2024-03-23T03:44:17;0.80;;;0.50;;
6031;SDS011;3044;43.232;27.972;2024-03-23T03:46:43;6.70;;;2.40;;
6031;SDS011;3044;43.232;27.972;2024-03-23T03:49:12;0.80;;;0.50;;
6031;SDS011;3044;43.232;27.972;2024-03-23T03:51:38;1.43;;;1.20;;
6031;SDS011;3044;43.232;27.972;2024-03-23T03:54:05;0.80;;;0.40;;
6031;SDS011;3044;43.232;27.972;2024-03-23T03:56:31;0.80;;;0.40;;
6031;SDS011;3044;43.232;27.972;2024-03-23T03:58:58;1.30;;;1.20;;
6031;SDS011;3044;43.232;27.972;2024-03-23T04:01:24;0.80;;;0.63;;
6031;SDS011;3044;43.232;27.972;2024-03-23T04:03:51;1.10;;;0.97;;
6031;SDS011;3044;43.232;27.972;2024-03-23T04:06:22;1.83;;;1.37;;
6031;SDS011;3044;43.232;27.972;2024-03-23T04:08:49;1.27;;;0.77;;
6031;SDS011;3044;43.232;27.972;2024-03-23T04:11:15;1.10;;;0.60;;
6031;SDS011;3044;43.232;27.972;2024-03-23T04:13:43;1.60;;;0.87;;
6031;SDS011;3044;43.232;27.972;2024-03-23T04:16:09;0.80;;;0.57;;
6031;SDS011;3044;43.232;27.972;2024-03-23T04:18:36;0.90;;;0.70;;
6031;SDS011;3044;43.232;27.972;2024-03-23T04:21:02;0.90;;;0.60;;
6031;SDS011;3044;43.232;27.972;2024-03-23T04:23:31;1.37;;;1.27;;
6031;SDS011;3044;43.232;27.972;2024-03-23T04:26:02;3.37;;;1.03;;
6031;SDS011;3044;43.232;27.972;2024-03-23T04:28:30;0.80;;;0.50;;
6031;SDS011;3044;43.232;27.972;2024-03-23T04:30:56;0.80;;;0.47;;
6031;SDS011;3044;43.232;27.972;2024-03-23T04:33:23;0.80;;;0.60;;
6031;SDS011;3044;43.232;27.972;2024-03-23T04:35:49;0.87;;;0.70;;
6031;SDS011;3044;43.232;27.972;2024-03-23T04:38:16;1.00;;;0.90;;
6031;SDS011;3044;43.232;27.972;2024-03-23T04:40:45;0.80;;;0.60;;
6031;SDS011;3044;43.232;27.972;2024-03-23T04:43:20;1.33;;;0.77;;
6031;SDS011;3044;43.232;27.972;2024-03-23T04:45:48;1.03;;;0.83;;
6031;SDS011;3044;43.232;27.972;2024-03-23T04:48:15;0.80;;;0.40;;
6031;SDS011;3044;43.232;27.972;2024-03-23T04:50:41;0.90;;;0.60;;
6031;SDS011;3044;43.232;27.972;2024-03-23T04:53:08;0.97;;;0.87;;
6031;SDS011;3044;43.232;27.972;2024-03-23T04:55:35;1.00;;;0.90;;
6031;SDS011;3044;43.232;27.972;2024-03-23T04:58:04;0.80;;;0.40;;
6031;SDS011;3044;43.232;27.972;2024-03-23T05:00:30;1.00;;;0.80;;
6031;SDS011;3044;43.232;27.972;2024-03-23T05:02:57;1.47;;;1.37;;
6031;SDS011;3044;43.232;27.972;2024-03-23T05:05:23;0.80;;;0.50;;
6031;SDS011;3044;43.232;27.972;2024-03-23T05:07:50;1.13;;;1.00;;
6031;SDS011;3044;43.232;27.972;2024-03-23T05:10:16;1.33;;;1.23;;
6031;SDS011;3044;43.232;27.972;2024-03-23T05:12:44;1.00;;;0.60;;
6031;SDS011;3044;43.232;27.972;2024-03-23T05:15:12;0.80;;;0.60;;
6031;SDS011;3044;43.232;27.972;2024-03-23T05:17:39;0.90;;;0.73;;
6031;SDS011;3044;43.232;27.972;2024-03-23T05:20:05;1.33;;;1.10;;
6031;SDS011;3044;43.232;27.972;2024-03-23T05:22:35;0.90;;;0.73;;
6031;SDS011;3044;43.232;27.972;2024-03-23T05:25:01;1.20;;;1.10;;
6031;SDS011;3044;43.232;27.972;2024-03-23T05:27:30;1.30;;;1.13;;
6031;SDS011;3044;43.232;27.972;2024-03-23T05:29:57;1.03;;;0.73;;
6031;SDS011;3044;43.232;27.972;2024-03-23T05:32:25;2.03;;;0.97;;
6031;SDS011;3044;43.232;27.972;2024-03-23T05:34:51;1.20;;;0.90;;
6031;SDS011;3044;43.232;27.972;2024-03-23T05:37:21;0.90;;;0.60;;
6031;SDS011;3044;43.232;27.972;2024-03-23T05:39:47;7.13;;;1.10;;
6031;SDS011;3044;43.232;27.972;2024-03-23T05:42:15;1.20;;;0.83;;
6031;SDS011;3044;43.232;27.972;2024-03-23T05:44:42;0.90;;;0.77;;
6031;SDS011;3044;43.232;27.972;2024-03-23T05:47:10;1.17;;;0.77;;
6031;SDS011;3044;43.232;27.972;2024-03-23T05:49:39;0.90;;;0.77;;
6031;SDS011;3044;43.232;27.972;2024-03-23T05:52:07;2.63;;;1.23;;
6031;SDS011;3044;43.232;27.972;2024-03-23T05:54:33;1.00;;;0.80;;
6031;SDS011;3044;43.232;27.972;2024-03-23T05:57:00;0.80;;;0.50;;
6031;SDS011;3044;43.232;27.972;2024-03-23T05:59:27;0.90;;;0.70;;
6031;SDS011;3044;43.232;27.972;2024-03-23T06:01:54;1.23;;;0.70;;
6031;SDS011;3044;43.232;27.972;2024-03-23T06:04:20;2.27;;;0.87;;
6031;SDS011;3044;43.232;27.972;2024-03-23T06:06:49;3.00;;;1.60;;
6031;SDS011;3044;43.232;27.972;2024-03-23T06:09:17;1.47;;;1.13;;
6031;SDS011;3044;43.232;27.972;2024-03-23T06:11:45;1.13;;;1.03;;
6031;SDS011;3044;43.232;27.972;2024-03-23T06:14:11;0.80;;;0.50;;
6031;SDS011;3044;43.232;27.972;2024-03-23T06:16:38;0.80;;;0.50;;
6031;SDS011;3044;43.232;27.972;2024-03-23T06:19:05;0.80;;;0.70;;
6031;SDS011;3044;43.232;27.972;2024-03-23T06:21:32;1.53;;;0.90;;
6031;SDS011;3044;43.232;27.972;2024-03-23T06:23:59;1.87;;;1.77;;
6031;SDS011;3044;43.232;27.972;2024-03-23T06:26:27;0.80;;;0.50;;
6031;SDS011;3044;43.232;27.972;2024-03-23T06:28:53;1.00;;;0.90;;
6031;SDS011;3044;43.232;27.972;2024-03-23T06:31:21;1.10;;;0.93;;
6031;SDS011;3044;43.232;27.972;2024-03-23T06:33:47;0.90;;;0.70;;
6031;SDS011;3044;43.232;27.972;2024-03-23T06:36:14;1.10;;;1.00;;
6031;SDS011;3044;43.232;27.972;2024-03-23T06:38:40;0.80;;;0.60;;
6031;SDS011;3044;43.232;27.972;2024-03-23T06:41:09;1.50;;;1.40;;
6031;SDS011;3044;43.232;27.972;2024-03-23T06:43:35;1.83;;;1.67;;
6031;SDS011;3044;43.232;27.972;2024-03-23T06:46:02;0.90;;;0.53;;
6031;SDS011;3044;43.232;27.972;2024-03-23T06:48:29;1.20;;;1.07;;
6031;SDS011;3044;43.232;27.972;2024-03-23T06:50:57;1.30;;;0.70;;
6031;SDS011;3044;43.232;27.972;2024-03-23T06:53:23;1.30;;;1.03;;
6031;SDS011;3044;43.232;27.972;2024-03-23T06:55:50;1.00;;;0.90;;
6031;SDS011;3044;43.232;27.972;2024-03-23T06:58:19;1.80;;;1.43;;
6031;SDS011;3044;43.232;27.972;2024-03-23T07:00:47;1.17;;;0.90;;
6031;SDS011;3044;43.232;27.972;2024-03-23T07:03:13;2.93;;;1.53;;
6031;SDS011;3044;43.232;27.972;2024-03-23T07:05:41;1.40;;;1.30;;
6031;SDS011;3044;43.232;27.972;2024-03-23T07:08:07;1.73;;;1.07;;
6031;SDS011;3044;43.232;27.972;2024-03-23T07:10:35;0.90;;;0.80;;
6031;SDS011;3044;43.232;27.972;2024-03-23T07:13:04;1.00;;;0.73;;
6031;SDS011;3044;43.232;27.972;2024-03-23T07:15:33;2.07;;;1.00;;
6031;SDS011;3044;43.232;27.972;2024-03-23T07:17:59;3.67;;;1.80;;
6031;SDS011;3044;43.232;27.972;2024-03-23T07:20:26;1.10;;;0.67;;
6031;SDS011;3044;43.232;27.972;2024-03-23T07:22:52;1.43;;;1.33;;
6031;SDS011;3044;43.232;27.972;2024-03-23T07:25:19;0.80;;;0.50;;
6031;SDS011;3044;43.232;27.972;2024-03-23T07:27:46;1.50;;;1.40;;
6031;SDS011;3044;43.232;27.972;2024-03-23T07:30:14;0.90;;;0.60;;
6031;SDS011;3044;43.232;27.972;2024-03-23T07:32:42;1.10;;;0.80;;
6031;SDS011;3044;43.232;27.972;2024-03-23T07:35:11;1.87;;;1.10;;
6031;SDS011;3044;43.232;27.972;2024-03-23T07:37:37;1.20;;;1.00;;
6031;SDS011;3044;43.232;27.972;2024-03-23T07:40:04;1.53;;;0.73;;
6031;SDS011;3044;43.232;27.972;2024-03-23T07:42:31;1.50;;;1.17;;
6031;SDS011;3044;43.232;27.972;2024-03-23T07:44:59;0.87;;;0.77;;
6031;SDS011;3044;43.232;27.972;2024-03-23T07:47:25;0.80;;;0.60;;
6031;SDS011;3044;43.232;27.972;2024-03-23T07:49:53;1.23;;;0.73;;
6031;SDS011;3044;43.232;27.972;2024-03-23T07:52:20;0.83;;;0.63;;
6031;SDS011;3044;43.232;27.972;2024-03-23T07:54:47;0.90;;;0.70;;
6031;SDS011;3044;43.232;27.972;2024-03-23T07:57:13;1.60;;;1.03;;
6031;SDS011;3044;43.232;27.972;2024-03-23T07:59:40;1.10;;;0.90;;
6031;SDS011;3044;43.232;27.972;2024-03-23T08:02:06;2.47;;;1.50;;
6031;SDS011;3044;43.232;27.972;2024-03-23T08:04:33;1.37;;;1.27;;
6031;SDS011;3044;43.232;27.972;2024-03-23T08:07:01;1.77;;;1.40;;
6031;SDS011;3044;43.232;27.972;2024-03-23T08:09:28;4.30;;;1.13;;
6031;SDS011;3044;43.232;27.972;2024-03-23T08:11:54;1.47;;;1.10;;
6031;SDS011;3044;43.232;27.972;2024-03-23T08:14:21;1.93;;;0.80;;
6031;SDS011;3044;43.232;27.972;2024-03-23T08:16:47;1.17;;;1.07;;
6031;SDS011;3044;43.232;27.972;2024-03-23T08:19:16;1.53;;;1.43;;
6031;SDS011;3044;43.232;27.972;2024-03-23T08:21:42;5.90;;;1.37;;
6031;SDS011;3044;43.232;27.972;2024-03-23T08:24:11;1.57;;;1.00;;
6031;SDS011;3044;43.232;27.972;2024-03-23T08:26:37;3.03;;;1.33;;
6031;SDS011;3044;43.232;27.972;2024-03-23T08:29:05;0.90;;;0.77;;
6031;SDS011;3044;43.232;27.972;2024-03-23T08:31:31;1.63;;;0.87;;
6031;SDS011;3044;43.232;27.972;2024-03-23T08:33:58;3.47;;;1.73;;
6031;SDS011;3044;43.232;27.972;2024-03-23T08:36:24;1.60;;;0.73;;
6031;SDS011;3044;43.232;27.972;2024-03-23T08:38:51;2.23;;;1.40;;
6031;SDS011;3044;43.232;27.972;2024-03-23T08:41:20;1.50;;;1.37;;
6031;SDS011;3044;43.232;27.972;2024-03-23T08:43:47;1.50;;;1.40;;
6031;SDS011;3044;43.232;27.972;2024-03-23T08:46:14;2.30;;;1.30;;
6031;SDS011;3044;43.232;27.972;2024-03-23T08:48:43;1.50;;;1.40;;
6031;SDS011;3044;43.232;27.972;2024-03-23T08:51:11;2.77;;;1.50;;
6031;SDS011;3044;43.232;27.972;2024-03-23T08:53:39;1.67;;;1.20;;
6031;SDS011;3044;43.232;27.972;2024-03-23T08:56:07;2.23;;;2.03;;
6031;SDS011;3044;43.232;27.972;2024-03-23T08:58:36;2.20;;;1.43;;
6031;SDS011;3044;43.232;27.972;2024-03-23T09:01:05;2.63;;;1.80;;
6031;SDS011;3044;43.232;27.972;2024-03-23T09:03:32;2.43;;;1.87;;
6031;SDS011;3044;43.232;27.972;2024-03-23T09:06:00;2.90;;;2.00;;
6031;SDS011;3044;43.232;27.972;2024-03-23T09:08:27;2.43;;;2.30;;
6031;SDS011;3044;43.232;27.972;2024-03-23T09:10:55;2.13;;;2.00;;
6031;SDS011;3044;43.232;27.972;2024-03-23T09:13:21;2.60;;;1.80;;
6031;SDS011;3044;43.232;27.972;2024-03-23T09:15:50;4.57;;;1.67;;
6031;SDS011;3044;43.232;27.972;2024-03-23T09:18:21;2.53;;;2.13;;
6031;SDS011;3044;43.232;27.972;2024-03-23T09:20:49;2.60;;;2.07;;
6031;SDS011;3044;43.232;27.972;2024-03-23T09:23:15;1.87;;;1.67;;
6031;SDS011;3044;43.232;27.972;2024-03-23T09:25:42;9.30;;;2.17;;
6031;SDS011;3044;43.232;27.972;2024-03-23T09:28:08;1.70;;;1.57;;
6031;SDS011;3044;43.232;27.972;2024-03-23T09:30:35;1.20;;;1.10;;
6031;SDS011;3044;43.232;27.972;2024-03-23T09:33:08;1.40;;;0.87;;
6031;SDS011;3044;43.232;27.972;2024-03-23T09:35:36;2.40;;;2.20;;
6031;SDS011;3044;43.232;27.972;2024-03-23T09:38:03;2.97;;;1.07;;
6031;SDS011;3044;43.232;27.972;2024-03-23T09:40:32;2.60;;;1.80;;
6031;SDS011;3044;43.232;27.972;2024-03-23T09:42:58;2.50;;;1.70;;
6031;SDS011;3044;43.232;27.972;2024-03-23T09:45:26;1.20;;;1.07;;
6031;SDS011;3044;43.232;27.972;2024-03-23T09:47:54;1.37;;;0.90;;
6031;SDS011;3044;43.232;27.972;2024-03-23T09:50:23;1.73;;;1.47;;
6031;SDS011;3044;43.232;27.972;2024-03-23T09:52:49;0.83;;;0.50;;
6031;SDS011;3044;43.232;27.972;2024-03-23T09:55:16;0.97;;;0.87;;
6031;SDS011;3044;43.232;27.972;2024-03-23T09:57:43;0.80;;;0.40;;
6031;SDS011;3044;43.232;27.972;2024-03-23T10:00:10;1.77;;;1.63;;
6031;SDS011;3044;43.232;27.972;2024-03-23T10:02:37;0.80;;;0.50;;
6031;SDS011;3044;43.232;27.972;2024-03-23T10:05:05;1.13;;;1.00;;
6031;SDS011;3044;43.232;27.972;2024-03-23T10:07:47;1.00;;;0.83;;
6031;SDS011;3044;43.232;27.972;2024-03-23T10:10:15;1.00;;;0.87;;
6031;SDS011;3044;43.232;27.972;2024-03-23T10:12:43;3.60;;;1.50;;
6031;SDS011;3044;43.232;27.972;2024-03-23T10:15:15;0.80;;;0.40;;
6031;SDS011;3044;43.232;27.972;2024-03-23T10:17:44;1.17;;;0.83;;
6031;SDS011;3044;43.232;27.972;2024-03-23T10:20:11;1.30;;;0.80;;
6031;SDS011;3044;43.232;27.972;2024-03-23T10:22:37;0.90;;;0.70;;
6031;SDS011;3044;43.232;27.972;2024-03-23T10:25:09;1.27;;;1.17;;
6031;SDS011;3044;43.232;27.972;2024-03-23T10:27:36;0.80;;;0.47;;
6031;SDS011;3044;43.232;27.972;2024-03-23T10:30:10;0.80;;;0.40;;
6031;SDS011;3044;43.232;27.972;2024-03-23T10:32:37;1.03;;;0.93;;
6031;SDS011;3044;43.232;27.972;2024-03-23T10:35:14;3.67;;;1.20;;
6031;SDS011;3044;43.232;27.972;2024-03-23T10:37:41;0.80;;;0.50;;
6031;SDS011;3044;43.232;27.972;2024-03-23T10:40:11;1.20;;;0.80;;
6031;SDS011;3044;43.232;27.972;2024-03-23T10:42:39;1.87;;;0.87;;
6031;SDS011;3044;43.232;27.972;2024-03-23T10:45:06;0.80;;;0.50;;
6031;SDS011;3044;43.232;27.972;2024-03-23T10:47:34;0.80;;;0.47;;
6031;SDS011;3044;43.232;27.972;2024-03-23T10:50:01;0.97;;;0.80;;
6031;SDS011;3044;43.232;27.972;2024-03-23T10:52:30;1.30;;;0.90;;
6031;SDS011;3044;43.232;27.972;2024-03-23T10:54:56;0.90;;;0.60;;
6031;SDS011;3044;43.232;27.972;2024-03-23T10:57:28;1.30;;;0.83;;
6031;SDS011;3044;43.232;27.972;2024-03-23T10:59:58;0.90;;;0.50;;
6031;SDS011;3044;43.232;27.972;2024-03-23T11:02:25;1.83;;;1.17;;
6031;SDS011;3044;43.232;27.972;2024-03-23T11:04:52;1.33;;;1.23;;
6031;SDS011;3044;43.232;27.972;2024-03-23T11:07:29;1.00;;;0.90;;
6031;SDS011;3044;43.232;27.972;2024-03-23T11:09:56;1.10;;;0.70;;
6031;SDS011;3044;43.232;27.972;2024-03-23T11:12:32;2.50;;;1.67;;
6031;SDS011;3044;43.232;27.972;2024-03-23T11:15:02;0.80;;;0.60;;
6031;SDS011;3044;43.232;27.972;2024-03-23T11:17:31;1.50;;;1.30;;
6031;SDS011;3044;43.232;27.972;2024-03-23T11:19:57;6.90;;;2.43;;
6031;SDS011;3044;43.232;27.972;2024-03-23T11:22:44;3.10;;;1.80;;
6031;SDS011;3044;43.232;27.972;2024-03-23T11:25:12;0.80;;;0.50;;
6031;SDS011;3044;43.232;27.972;2024-03-23T11:27:42;1.10;;;1.00;;
6031;SDS011;3044;43.232;27.972;2024-03-23T11:30:13;2.73;;;1.77;;
6031;SDS011;3044;43.232;27.972;2024-03-23T11:32:43;1.20;;;0.77;;
6031;SDS011;3044;43.232;27.972;2024-03-23T11:35:10;1.00;;;0.80;;
6031;SDS011;3044;43.232;27.972;2024-03-23T11:37:37;1.00;;;0.90;;
6031;SDS011;3044;43.232;27.972;2024-03-23T11:40:19;1.20;;;0.90;;
6031;SDS011;3044;43.232;27.972;2024-03-23T11:42:48;1.20;;;1.10;;
6031;SDS011;3044;43.232;27.972;2024-03-23T11:45:22;3.63;;;2.23;;
6031;SDS011;3044;43.232;27.972;2024-03-23T11:48:00;1.83;;;1.73;;
6031;SDS011;3044;43.232;27.972;2024-03-23T11:50:27;1.00;;;0.70;;
6031;SDS011;3044;43.232;27.972;2024-03-23T11:53:05;0.90;;;0.70;;
6031;SDS011;3044;43.232;27.972;2024-03-23T11:55:38;2.87;;;0.93;;
6031;SDS011;3044;43.232;27.972;2024-03-23T11:58:08;0.80;;;0.70;;
6031;SDS011;3044;43.232;27.972;2024-03-23T12:00:34;0.90;;;0.70;;
6031;SDS011;3044;43.232;27.972;2024-03-23T12:03:01;1.63;;;0.90;;
6031;SDS011;3044;43.232;27.972;2024-03-23T12:05:28;2.40;;;1.47;;
6031;SDS011;3044;43.232;27.972;2024-03-23T12:07:55;1.53;;;1.43;;
6031;SDS011;3044;43.232;27.972;2024-03-23T12:10:43;3.03;;;1.27;;
6031;SDS011;3044;43.232;27.972;2024-03-23T12:13:12;2.70;;;1.60;;
6031;SDS011;3044;43.232;27.972;2024-03-23T12:15:42;0.90;;;0.70;;
6031;SDS011;3044;43.232;27.972;2024-03-23T12:18:10;0.80;;;0.60;;
6031;SDS011;3044;43.232;27.972;2024-03-23T12:20:37;0.90;;;0.73;;
6031;SDS011;3044;43.232;27.972;2024-03-23T12:23:08;1.03;;;0.80;;
6031;SDS011;3044;43.232;27.972;2024-03-23T12:25:36;1.10;;;0.83;;
6031;SDS011;3044;43.232;27.972;2024-03-23T12:28:04;0.80;;;0.50;;
6031;SDS011;3044;43.232;27.972;2024-03-23T12:30:33;1.83;;;1.50;;
6031;SDS011;3044;43.232;27.972;2024-03-23T12:33:01;1.30;;;0.77;;
6031;SDS011;3044;43.232;27.972;2024-03-23T12:35:28;1.47;;;1.37;;
6031;SDS011;3044;43.232;27.972;2024-03-23T12:37:57;0.90;;;0.60;;
6031;SDS011;3044;43.232;27.972;2024-03-23T12:40:23;2.17;;;1.53;;
6031;SDS011;3044;43.232;27.972;2024-03-23T12:42:50;1.27;;;1.17;;
6031;SDS011;3044;43.232;27.972;2024-03-23T12:45:16;3.43;;;0.80;;
6031;SDS011;3044;43.232;27.972;2024-03-23T12:47:45;1.03;;;0.60;;
6031;SDS011;3044;43.232;27.972;2024-03-23T12:50:11;0.90;;;0.67;;
6031;SDS011;3044;43.232;27.972;2024-03-23T12:52:38;1.00;;;0.73;;
6031;SDS011;3044;43.232;27.972;2024-03-23T12:55:04;9.00;;;2.97;;
6031;SDS011;3044;43.232;27.972;2024-03-23T12:57:32;1.23;;;1.13;;
6031;SDS011;3044;43.232;27.972;2024-03-23T12:59:58;1.60;;;1.00;;
6031;SDS011;3044;43.232;27.972;2024-03-23T13:02:26;4.30;;;1.57;;
6031;SDS011;3044;43.232;27.972;2024-03-23T13:04:53;2.00;;;1.80;;
6031;SDS011;3044;43.232;27.972;2024-03-23T13:07:21;2.63;;;2.53;;
6031;SDS011;3044;43.232;27.972;2024-03-23T13:09:50;40.23;;;32.53;;
6031;SDS011;3044;43.232;27.972;2024-03-23T13:12:17;28.10;;;19.80;;
6031;SDS011;3044;43.232;27.972;2024-03-23T13:14:44;9.00;;;8.20;;
6031;SDS011;3044;43.232;27.972;2024-03-23T13:17:11;175.03;;;149.87;;
6031;SDS011;3044;43.232;27.972;2024-03-23T13:19:37;166.90;;;142.13;;
6031;SDS011;3044;43.232;27.972;2024-03-23T13:22:06;34.13;;;30.43;;
6031;SDS011;3044;43.232;27.972;2024-03-23T13:24:32;21.97;;;19.87;;
6031;SDS011;3044;43.232;27.972;2024-03-23T13:26:59;77.43;;;69.10;;
6031;SDS011;3044;43.232;27.972;2024-03-23T13:29:25;32.87;;;29.53;;
6031;SDS011;3044;43.232;27.972;2024-03-23T13:31:52;43.80;;;25.60;;
6031;SDS011;3044;43.232;27.972;2024-03-23T13:34:19;329.93;;;183.30;;
6031;SDS011;3044;43.232;27.972;2024-03-23T13:36:46;473.43;;;286.97;;
6031;SDS011;3044;43.232;27.972;2024-03-23T13:39:14;167.67;;;89.63;;
6031;SDS011;3044;43.232;27.972;2024-03-23T13:41:42;16.50;;;11.60;;
6031;SDS011;3044;43.232;27.972;2024-03-23T13:44:09;7.30;;;5.10;;
6031;SDS011;3044;43.232;27.972;2024-03-23T13:46:37;14.57;;;12.57;;
6031;SDS011;3044;43.232;27.972;2024-03-23T13:49:04;2.67;;;2.00;;
6031;SDS011;3044;43.232;27.972;2024-03-23T13:51:31;3.57;;;1.43;;
6031;SDS011;3044;43.232;27.972;2024-03-23T13:53:58;1.00;;;0.80;;
6031;SDS011;3044;43.232;27.972;2024-03-23T13:56:28;6.73;;;1.40;;
6031;SDS011;3044;43.232;27.972;2024-03-23T13:58:54;1.00;;;0.70;;
6031;SDS011;3044;43.232;27.972;2024-03-23T14:01:22;2.20;;;2.00;;
6031;SDS011;3044;43.232;27.972;2024-03-23T14:03:48;1.07;;;0.90;;
6031;SDS011;3044;43.232;27.972;2024-03-23T14:06:15;2.10;;;2.00;;
6031;SDS011;3044;43.232;27.972;2024-03-23T14:08:42;0.90;;;0.77;;
6031;SDS011;3044;43.232;27.972;2024-03-23T14:11:09;1.00;;;0.83;;
6031;SDS011;3044;43.232;27.972;2024-03-23T14:13:37;0.90;;;0.77;;
6031;SDS011;3044;43.232;27.972;2024-03-23T14:16:05;1.40;;;1.30;;
6031;SDS011;3044;43.232;27.972;2024-03-23T14:18:32;0.87;;;0.73;;
6031;SDS011;3044;43.232;27.972;2024-03-23T14:20:59;1.03;;;0.93;;
6031;SDS011;3044;43.232;27.972;2024-03-23T14:23:26;1.47;;;0.80;;
6031;SDS011;3044;43.232;27.972;2024-03-23T14:25:54;2.60;;;1.40;;
6031;SDS011;3044;43.232;27.972;2024-03-23T14:28:21;0.90;;;0.70;;
6031;SDS011;3044;43.232;27.972;2024-03-23T14:30:50;0.80;;;0.40;;
6031;SDS011;3044;43.232;27.972;2024-03-23T14:33:17;0.80;;;0.50;;
6031;SDS011;3044;43.232;27.972;2024-03-23T14:35:51;1.10;;;0.80;;
6031;SDS011;3044;43.232;27.972;2024-03-23T14:38:18;1.20;;;1.00;;
6031;SDS011;3044;43.232;27.972;2024-03-23T14:40:45;3.00;;;1.20;;
6031;SDS011;3044;43.232;27.972;2024-03-23T14:43:11;0.80;;;0.50;;
6031;SDS011;3044;43.232;27.972;2024-03-23T14:45:45;1.60;;;1.20;;
6031;SDS011;3044;43.232;27.972;2024-03-23T14:48:30;1.37;;;1.27;;
6031;SDS011;3044;43.232;27.972;2024-03-23T14:50:57;5.73;;;1.27;;
6031;SDS011;3044;43.232;27.972;2024-03-23T14:53:24;0.80;;;0.50;;
6031;SDS011;3044;43.232;27.972;2024-03-23T14:55:54;0.80;;;0.53;;
6031;SDS011;3044;43.232;27.972;2024-03-23T14:58:20;0.90;;;0.57;;
6031;SDS011;3044;43.232;27.972;2024-03-23T15:00:48;0.80;;;0.50;;
6031;SDS011;3044;43.232;27.972;2024-03-23T15:03:14;0.80;;;0.50;;
6031;SDS011;3044;43.232;27.972;2024-03-23T15:05:42;0.97;;;0.57;;
6031;SDS011;3044;43.232;27.972;2024-03-23T15:08:17;1.50;;;0.90;;
6031;SDS011;3044;43.232;27.972;2024-03-23T15:10:44;0.80;;;0.70;;
6031;SDS011;3044;43.232;27.972;2024-03-23T15:13:11;1.37;;;0.93;;
6031;SDS011;3044;43.232;27.972;2024-03-23T15:15:38;1.00;;;0.73;;
6031;SDS011;3044;43.232;27.972;2024-03-23T15:18:06;1.00;;;0.60;;
6031;SDS011;3044;43.232;27.972;2024-03-23T15:20:33;0.90;;;0.73;;
6031;SDS011;3044;43.232;27.972;2024-03-23T15:23:02;0.80;;;0.60;;
6031;SDS011;3044;43.232;27.972;2024-03-23T15:25:29;1.77;;;0.83;;
6031;SDS011;3044;43.232;27.972;2024-03-23T15:27:56;0.80;;;0.50;;
6031;SDS011;3044;43.232;27.972;2024-03-23T15:30:24;0.80;;;0.40;;
6031;SDS011;3044;43.232;27.972;2024-03-23T15:32:50;0.80;;;0.50;;
6031;SDS011;3044;43.232;27.972;2024-03-23T15:35:17;0.80;;;0.50;;
6031;SDS011;3044;43.232;27.972;2024-03-23T15:37:44;1.03;;;0.93;;
6031;SDS011;3044;43.232;27.972;2024-03-23T15:40:13;5.03;;;1.63;;
6031;SDS011;3044;43.232;27.972;2024-03-23T15:42:39;0.90;;;0.80;;
6031;SDS011;3044;43.232;27.972;2024-03-23T15:45:06;1.73;;;0.97;;
6031;SDS011;3044;43.232;27.972;2024-03-23T15:47:33;0.80;;;0.40;;
6031;SDS011;3044;43.232;27.972;2024-03-23T15:50:01;1.70;;;1.60;;
6031;SDS011;3044;43.232;27.972;2024-03-23T15:52:33;0.90;;;0.60;;
6031;SDS011;3044;43.232;27.972;2024-03-23T15:55:01;2.00;;;1.30;;
6031;SDS011;3044;43.232;27.972;2024-03-23T15:57:32;1.20;;;1.10;;